sensor_id;sensor_type;location;lat;lon;timestamp;P1;durP1;ratioP1;P2;durP2;ratioP2
42632;SDS011;28261;53.304;-6.284;2022-09-28T00:01:08;23.30;;;8.48;;
42632;SDS011;28261;53.304;-6.284;2022-09-28T00:03:15;16.55;;;7.40;;
42632;SDS011;28261;53.304;-6.284;2022-09-28T00:05:18;16.00;;;6.85;;
42632;SDS011;28261;53.304;-6.284;2022-09-28T00:07:22;28.88;;;6.38;;
42632;SDS011;28261;53.304;-6.284;2022-09-28T00:09:25;20.77;;;5.05;;
42632;SDS011;28261;53.304;-6.284;2022-09-28T00:11:29;16.08;;;5.25;;
42632;SDS011;28261;53.304;-6.284;2022-09-28T00:13:33;12.25;;;4.35;;
42632;SDS011;28261;53.304;-6.284;2022-09-28T00:15:37;14.30;;;3.47;;
42632;SDS011;28261;53.304;-6.284;2022-09-28T00:17:42;10.20;;;3.60;;
42632;SDS011;28261;53.304;-6.284;2022-09-28T00:19:46;20.27;;;4.20;;
42632;SDS011;28261;53.304;-6.284;2022-09-28T00:21:50;12.88;;;2.67;;
42632;SDS011;28261;53.304;-6.284;2022-09-28T00:23:55;16.58;;;3.25;;
42632;SDS011;28261;53.304;-6.284;2022-09-28T00:26:27;10.90;;;2.55;;
42632;SDS011;28261;53.304;-6.284;2022-09-28T00:28:31;10.30;;;2.50;;
42632;SDS011;28261;53.304;-6.284;2022-09-28T00:30:35;11.70;;;2.70;;
42632;SDS011;28261;53.304;-6.284;2022-09-28T00:32:38;11.82;;;2.88;;
42632;SDS011;28261;53.304;-6.284;2022-09-28T00:34:44;14.15;;;2.85;;
42632;SDS011;28261;53.304;-6.284;2022-09-28T00:36:49;18.17;;;3.22;;
42632;SDS011;28261;53.304;-6.284;2022-09-28T00:38:52;12.10;;;3.22;;
42632;SDS011;28261;53.304;-6.284;2022-09-28T00:40:57;20.00;;;3.28;;
42632;SDS011;28261;53.304;-6.284;2022-09-28T00:43:15;18.45;;;2.50;;
42632;SDS011;28261;53.304;-6.284;2022-09-28T00:45:19;14.07;;;2.17;;
42632;SDS011;28261;53.304;-6.284;2022-09-28T00:47:26;12.52;;;2.40;;
42632;SDS011;28261;53.304;-6.284;2022-09-28T00:49:39;12.10;;;2.50;;
42632;SDS011;28261;53.304;-6.284;2022-09-28T00:51:48;20.92;;;2.75;;
42632;SDS011;28261;53.304;-6.284;2022-09-28T00:53:51;15.95;;;2.53;;
42632;SDS011;28261;53.304;-6.284;2022-09-28T00:55:58;15.77;;;2.00;;
42632;SDS011;28261;53.304;-6.284;2022-09-28T00:58:05;13.45;;;2.13;;
42632;SDS011;28261;53.304;-6.284;2022-09-28T01:00:13;18.35;;;2.83;;
42632;SDS011;28261;53.304;-6.284;2022-09-28T01:02:17;12.93;;;2.67;;
42632;SDS011;28261;53.304;-6.284;2022-09-28T01:04:21;18.92;;;3.13;;
42632;SDS011;28261;53.304;-6.284;2022-09-28T01:06:31;18.73;;;3.90;;
42632;SDS011;28261;53.304;-6.284;2022-09-28T01:08:37;19.70;;;3.80;;
42632;SDS011;28261;53.304;-6.284;2022-09-28T01:10:41;15.77;;;3.67;;
42632;SDS011;28261;53.304;-6.284;2022-09-28T01:12:46;10.77;;;3.78;;
42632;SDS011;28261;53.304;-6.284;2022-09-28T01:14:49;14.57;;;3.97;;
42632;SDS011;28261;53.304;-6.284;2022-09-28T01:16:56;11.38;;;4.00;;
42632;SDS011;28261;53.304;-6.284;2022-09-28T01:19:15;12.15;;;3.75;;
42632;SDS011;28261;53.304;-6.284;2022-09-28T01:21:36;16.10;;;4.18;;
42632;SDS011;28261;53.304;-6.284;2022-09-28T01:24:07;12.18;;;3.90;;
42632;SDS011;28261;53.304;-6.284;2022-09-28T01:28:56;13.82;;;4.18;;
42632;SDS011;28261;53.304;-6.284;2022-09-28T01:31:08;16.77;;;4.10;;
42632;SDS011;28261;53.304;-6.284;2022-09-28T01:33:16;10.50;;;4.50;;
42632;SDS011;28261;53.304;-6.284;2022-09-28T01:35:25;22.30;;;4.88;;
42632;SDS011;28261;53.304;-6.284;2022-09-28T01:37:34;17.63;;;4.13;;
42632;SDS011;28261;53.304;-6.284;2022-09-28T01:39:44;14.57;;;3.75;;
42632;SDS011;28261;53.304;-6.284;2022-09-28T01:41:53;15.18;;;3.53;;
42632;SDS011;28261;53.304;-6.284;2022-09-28T01:44:02;11.40;;;2.88;;
42632;SDS011;28261;53.304;-6.284;2022-09-28T01:46:10;13.55;;;2.70;;
42632;SDS011;28261;53.304;-6.284;2022-09-28T01:48:18;11.88;;;2.60;;
42632;SDS011;28261;53.304;-6.284;2022-09-28T01:50:27;11.32;;;2.22;;
42632;SDS011;28261;53.304;-6.284;2022-09-28T01:52:36;13.98;;;2.47;;
42632;SDS011;28261;53.304;-6.284;2022-09-28T01:54:47;7.88;;;1.77;;
42632;SDS011;28261;53.304;-6.284;2022-09-28T01:56:57;9.02;;;1.48;;
42632;SDS011;28261;53.304;-6.284;2022-09-28T01:59:08;5.25;;;1.50;;
42632;SDS011;28261;53.304;-6.284;2022-09-28T02:01:16;9.02;;;1.58;;
42632;SDS011;28261;53.304;-6.284;2022-09-28T02:03:24;17.63;;;1.73;;
42632;SDS011;28261;53.304;-6.284;2022-09-28T02:05:35;11.25;;;1.50;;
42632;SDS011;28261;53.304;-6.284;2022-09-28T02:07:41;10.23;;;1.42;;
42632;SDS011;28261;53.304;-6.284;2022-09-28T02:09:49;9.65;;;1.38;;
42632;SDS011;28261;53.304;-6.284;2022-09-28T02:12:00;12.13;;;2.03;;
42632;SDS011;28261;53.304;-6.284;2022-09-28T02:14:08;7.90;;;1.48;;
42632;SDS011;28261;53.304;-6.284;2022-09-28T02:16:15;9.40;;;1.98;;
42632;SDS011;28261;53.304;-6.284;2022-09-28T02:18:23;4.85;;;1.63;;
42632;SDS011;28261;53.304;-6.284;2022-09-28T02:20:27;6.35;;;2.03;;
42632;SDS011;28261;53.304;-6.284;2022-09-28T02:22:36;11.07;;;2.28;;
42632;SDS011;28261;53.304;-6.284;2022-09-28T02:24:45;7.72;;;1.95;;
42632;SDS011;28261;53.304;-6.284;2022-09-28T02:27:02;9.73;;;2.35;;
42632;SDS011;28261;53.304;-6.284;2022-09-28T02:29:10;9.02;;;1.95;;
42632;SDS011;28261;53.304;-6.284;2022-09-28T02:31:15;10.43;;;2.60;;
42632;SDS011;28261;53.304;-6.284;2022-09-28T02:33:20;12.60;;;2.75;;
42632;SDS011;28261;53.304;-6.284;2022-09-28T02:35:27;10.43;;;2.20;;
42632;SDS011;28261;53.304;-6.284;2022-09-28T02:37:31;15.07;;;3.03;;
42632;SDS011;28261;53.304;-6.284;2022-09-28T02:39:35;7.10;;;2.40;;
42632;SDS011;28261;53.304;-6.284;2022-09-28T02:41:43;10.73;;;2.10;;
42632;SDS011;28261;53.304;-6.284;2022-09-28T02:44:00;8.38;;;2.17;;
42632;SDS011;28261;53.304;-6.284;2022-09-28T02:46:15;7.15;;;2.05;;
42632;SDS011;28261;53.304;-6.284;2022-09-28T02:48:46;10.85;;;2.10;;
42632;SDS011;28261;53.304;-6.284;2022-09-28T02:51:25;13.13;;;2.17;;
42632;SDS011;28261;53.304;-6.284;2022-09-28T02:53:45;11.43;;;3.00;;
42632;SDS011;28261;53.304;-6.284;2022-09-28T02:56:09;12.77;;;1.63;;
42632;SDS011;28261;53.304;-6.284;2022-09-28T02:58:29;11.40;;;2.75;;
42632;SDS011;28261;53.304;-6.284;2022-09-28T03:00:44;8.00;;;1.42;;
42632;SDS011;28261;53.304;-6.284;2022-09-28T03:02:59;7.97;;;1.73;;
42632;SDS011;28261;53.304;-6.284;2022-09-28T03:05:12;9.48;;;1.73;;
42632;SDS011;28261;53.304;-6.284;2022-09-28T03:09:29;8.68;;;1.40;;
42632;SDS011;28261;53.304;-6.284;2022-09-28T03:11:39;8.55;;;1.55;;
42632;SDS011;28261;53.304;-6.284;2022-09-28T03:13:48;8.90;;;1.30;;
42632;SDS011;28261;53.304;-6.284;2022-09-28T03:16:11;10.45;;;1.55;;
42632;SDS011;28261;53.304;-6.284;2022-09-28T03:18:18;11.70;;;1.65;;
42632;SDS011;28261;53.304;-6.284;2022-09-28T03:20:21;12.07;;;1.70;;
42632;SDS011;28261;53.304;-6.284;2022-09-28T03:22:26;6.15;;;1.30;;
42632;SDS011;28261;53.304;-6.284;2022-09-28T03:24:30;9.07;;;1.45;;
42632;SDS011;28261;53.304;-6.284;2022-09-28T03:26:35;6.88;;;1.50;;
42632;SDS011;28261;53.304;-6.284;2022-09-28T03:28:41;10.35;;;1.70;;
42632;SDS011;28261;53.304;-6.284;2022-09-28T03:30:51;8.23;;;1.85;;
42632;SDS011;28261;53.304;-6.284;2022-09-28T03:32:57;5.88;;;1.20;;
42632;SDS011;28261;53.304;-6.284;2022-09-28T03:35:04;11.45;;;1.58;;
42632;SDS011;28261;53.304;-6.284;2022-09-28T03:37:10;7.57;;;1.58;;
42632;SDS011;28261;53.304;-6.284;2022-09-28T03:39:13;10.70;;;1.38;;
42632;SDS011;28261;53.304;-6.284;2022-09-28T03:41:17;11.45;;;1.50;;
42632;SDS011;28261;53.304;-6.284;2022-09-28T03:43:21;8.13;;;1.35;;
42632;SDS011;28261;53.304;-6.284;2022-09-28T03:45:27;6.32;;;1.40;;
42632;SDS011;28261;53.304;-6.284;2022-09-28T03:47:31;12.15;;;1.58;;
42632;SDS011;28261;53.304;-6.284;2022-09-28T03:49:36;11.68;;;1.95;;
42632;SDS011;28261;53.304;-6.284;2022-09-28T03:51:45;8.90;;;2.40;;
42632;SDS011;28261;53.304;-6.284;2022-09-28T03:53:49;13.10;;;2.22;;
42632;SDS011;28261;53.304;-6.284;2022-09-28T03:55:53;10.32;;;2.58;;
42632;SDS011;28261;53.304;-6.284;2022-09-28T03:57:56;10.98;;;2.92;;
42632;SDS011;28261;53.304;-6.284;2022-09-28T04:00:01;9.50;;;3.20;;
42632;SDS011;28261;53.304;-6.284;2022-09-28T04:02:14;11.18;;;3.05;;
42632;SDS011;28261;53.304;-6.284;2022-09-28T04:04:17;8.73;;;2.60;;
42632;SDS011;28261;53.304;-6.284;2022-09-28T04:06:23;10.80;;;2.72;;
42632;SDS011;28261;53.304;-6.284;2022-09-28T04:08:27;12.57;;;3.15;;
42632;SDS011;28261;53.304;-6.284;2022-09-28T04:10:32;12.20;;;2.90;;
42632;SDS011;28261;53.304;-6.284;2022-09-28T04:12:36;5.32;;;2.00;;
42632;SDS011;28261;53.304;-6.284;2022-09-28T04:14:40;7.38;;;2.15;;
42632;SDS011;28261;53.304;-6.284;2022-09-28T04:16:45;10.18;;;1.83;;
42632;SDS011;28261;53.304;-6.284;2022-09-28T04:18:49;5.43;;;1.77;;
42632;SDS011;28261;53.304;-6.284;2022-09-28T04:21:27;8.57;;;1.38;;
42632;SDS011;28261;53.304;-6.284;2022-09-28T04:23:38;7.03;;;1.40;;
42632;SDS011;28261;53.304;-6.284;2022-09-28T04:25:42;7.88;;;1.42;;
42632;SDS011;28261;53.304;-6.284;2022-09-28T04:27:49;6.22;;;1.15;;
42632;SDS011;28261;53.304;-6.284;2022-09-28T04:30:10;7.07;;;1.10;;
42632;SDS011;28261;53.304;-6.284;2022-09-28T04:32:17;7.60;;;1.20;;
42632;SDS011;28261;53.304;-6.284;2022-09-28T04:34:22;5.65;;;1.10;;
42632;SDS011;28261;53.304;-6.284;2022-09-28T04:36:27;4.97;;;1.20;;
42632;SDS011;28261;53.304;-6.284;2022-09-28T04:38:31;9.27;;;1.35;;
42632;SDS011;28261;53.304;-6.284;2022-09-28T04:40:55;5.50;;;1.60;;
42632;SDS011;28261;53.304;-6.284;2022-09-28T04:42:59;7.57;;;1.20;;
42632;SDS011;28261;53.304;-6.284;2022-09-28T04:45:04;9.25;;;1.20;;
42632;SDS011;28261;53.304;-6.284;2022-09-28T04:47:12;8.35;;;1.17;;
42632;SDS011;28261;53.304;-6.284;2022-09-28T04:49:34;6.90;;;1.50;;
42632;SDS011;28261;53.304;-6.284;2022-09-28T04:51:45;8.43;;;1.90;;
42632;SDS011;28261;53.304;-6.284;2022-09-28T04:53:49;8.70;;;2.03;;
42632;SDS011;28261;53.304;-6.284;2022-09-28T04:55:55;8.60;;;1.85;;
42632;SDS011;28261;53.304;-6.284;2022-09-28T04:57:59;5.20;;;1.45;;
42632;SDS011;28261;53.304;-6.284;2022-09-28T05:00:06;9.05;;;1.70;;
42632;SDS011;28261;53.304;-6.284;2022-09-28T05:02:13;6.90;;;1.33;;
42632;SDS011;28261;53.304;-6.284;2022-09-28T05:04:47;7.15;;;1.52;;
42632;SDS011;28261;53.304;-6.284;2022-09-28T05:07:24;8.35;;;1.15;;
42632;SDS011;28261;53.304;-6.284;2022-09-28T05:09:29;4.35;;;1.38;;
42632;SDS011;28261;53.304;-6.284;2022-09-28T05:11:39;4.18;;;1.30;;
42632;SDS011;28261;53.304;-6.284;2022-09-28T05:13:48;6.28;;;1.77;;
42632;SDS011;28261;53.304;-6.284;2022-09-28T05:15:53;7.38;;;1.80;;
42632;SDS011;28261;53.304;-6.284;2022-09-28T05:18:05;9.43;;;1.50;;
42632;SDS011;28261;53.304;-6.284;2022-09-28T05:20:18;8.60;;;1.73;;
42632;SDS011;28261;53.304;-6.284;2022-09-28T05:22:22;4.50;;;1.33;;
42632;SDS011;28261;53.304;-6.284;2022-09-28T05:24:29;9.43;;;1.50;;
42632;SDS011;28261;53.304;-6.284;2022-09-28T05:26:34;8.95;;;1.45;;
42632;SDS011;28261;53.304;-6.284;2022-09-28T05:28:38;5.38;;;1.20;;
42632;SDS011;28261;53.304;-6.284;2022-09-28T05:31:13;11.85;;;1.40;;
42632;SDS011;28261;53.304;-6.284;2022-09-28T05:33:31;7.05;;;0.93;;
42632;SDS011;28261;53.304;-6.284;2022-09-28T05:35:46;9.63;;;1.08;;
42632;SDS011;28261;53.304;-6.284;2022-09-28T05:37:55;10.07;;;1.25;;
42632;SDS011;28261;53.304;-6.284;2022-09-28T05:40:06;10.98;;;1.10;;
42632;SDS011;28261;53.304;-6.284;2022-09-28T05:42:12;10.93;;;1.10;;
42632;SDS011;28261;53.304;-6.284;2022-09-28T05:44:16;6.40;;;1.00;;
42632;SDS011;28261;53.304;-6.284;2022-09-28T05:46:21;6.55;;;1.48;;
42632;SDS011;28261;53.304;-6.284;2022-09-28T05:48:26;5.57;;;1.08;;
42632;SDS011;28261;53.304;-6.284;2022-09-28T05:50:30;8.63;;;1.45;;
42632;SDS011;28261;53.304;-6.284;2022-09-28T05:52:34;6.85;;;1.10;;
42632;SDS011;28261;53.304;-6.284;2022-09-28T05:54:38;12.02;;;1.52;;
42632;SDS011;28261;53.304;-6.284;2022-09-28T05:56:43;7.90;;;1.25;;
42632;SDS011;28261;53.304;-6.284;2022-09-28T05:58:47;4.90;;;0.90;;
42632;SDS011;28261;53.304;-6.284;2022-09-28T06:00:53;3.65;;;1.17;;
42632;SDS011;28261;53.304;-6.284;2022-09-28T06:02:57;5.63;;;1.20;;
42632;SDS011;28261;53.304;-6.284;2022-09-28T06:05:09;5.68;;;1.15;;
42632;SDS011;28261;53.304;-6.284;2022-09-28T06:07:13;6.07;;;0.80;;
42632;SDS011;28261;53.304;-6.284;2022-09-28T06:09:16;7.10;;;1.00;;
42632;SDS011;28261;53.304;-6.284;2022-09-28T06:11:35;6.32;;;1.23;;
42632;SDS011;28261;53.304;-6.284;2022-09-28T06:13:47;3.67;;;0.80;;
42632;SDS011;28261;53.304;-6.284;2022-09-28T06:15:54;13.32;;;1.80;;
42632;SDS011;28261;53.304;-6.284;2022-09-28T06:18:00;7.68;;;1.20;;
42632;SDS011;28261;53.304;-6.284;2022-09-28T06:20:10;9.43;;;1.10;;
42632;SDS011;28261;53.304;-6.284;2022-09-28T06:22:42;5.45;;;1.13;;
42632;SDS011;28261;53.304;-6.284;2022-09-28T06:24:46;8.98;;;1.10;;
42632;SDS011;28261;53.304;-6.284;2022-09-28T06:26:51;4.03;;;0.80;;
42632;SDS011;28261;53.304;-6.284;2022-09-28T06:28:57;7.55;;;1.05;;
42632;SDS011;28261;53.304;-6.284;2022-09-28T06:31:01;5.57;;;1.10;;
42632;SDS011;28261;53.304;-6.284;2022-09-28T06:33:09;7.35;;;1.55;;
42632;SDS011;28261;53.304;-6.284;2022-09-28T06:35:15;6.82;;;1.25;;
42632;SDS011;28261;53.304;-6.284;2022-09-28T06:37:19;4.75;;;1.23;;
42632;SDS011;28261;53.304;-6.284;2022-09-28T06:39:24;9.00;;;1.10;;
42632;SDS011;28261;53.304;-6.284;2022-09-28T06:41:28;9.10;;;1.10;;
42632;SDS011;28261;53.304;-6.284;2022-09-28T06:43:34;6.32;;;1.10;;
42632;SDS011;28261;53.304;-6.284;2022-09-28T06:45:51;7.20;;;1.20;;
42632;SDS011;28261;53.304;-6.284;2022-09-28T06:48:19;8.13;;;1.30;;
42632;SDS011;28261;53.304;-6.284;2022-09-28T06:50:23;5.88;;;1.10;;
42632;SDS011;28261;53.304;-6.284;2022-09-28T06:52:51;9.20;;;0.95;;
42632;SDS011;28261;53.304;-6.284;2022-09-28T06:55:08;5.95;;;1.08;;
42632;SDS011;28261;53.304;-6.284;2022-09-28T06:57:15;11.00;;;1.83;;
42632;SDS011;28261;53.304;-6.284;2022-09-28T06:59:20;3.90;;;1.10;;
42632;SDS011;28261;53.304;-6.284;2022-09-28T07:01:27;4.93;;;1.33;;
42632;SDS011;28261;53.304;-6.284;2022-09-28T07:03:39;4.13;;;0.95;;
42632;SDS011;28261;53.304;-6.284;2022-09-28T07:06:18;15.48;;;1.38;;
42632;SDS011;28261;53.304;-6.284;2022-09-28T07:08:52;9.30;;;1.10;;
42632;SDS011;28261;53.304;-6.284;2022-09-28T07:11:39;6.20;;;1.48;;
42632;SDS011;28261;53.304;-6.284;2022-09-28T07:14:05;9.00;;;1.25;;
42632;SDS011;28261;53.304;-6.284;2022-09-28T07:16:19;8.02;;;1.02;;
42632;SDS011;28261;53.304;-6.284;2022-09-28T07:18:32;5.13;;;1.13;;
42632;SDS011;28261;53.304;-6.284;2022-09-28T07:20:36;7.50;;;1.58;;
42632;SDS011;28261;53.304;-6.284;2022-09-28T07:22:54;8.45;;;1.25;;
42632;SDS011;28261;53.304;-6.284;2022-09-28T07:25:40;7.35;;;1.00;;
42632;SDS011;28261;53.304;-6.284;2022-09-28T07:28:15;5.85;;;1.05;;
42632;SDS011;28261;53.304;-6.284;2022-09-28T07:30:41;5.97;;;1.02;;
42632;SDS011;28261;53.304;-6.284;2022-09-28T07:32:50;4.10;;;0.90;;
42632;SDS011;28261;53.304;-6.284;2022-09-28T07:35:16;7.65;;;1.02;;
42632;SDS011;28261;53.304;-6.284;2022-09-28T07:37:24;5.63;;;1.30;;
42632;SDS011;28261;53.304;-6.284;2022-09-28T07:39:28;7.07;;;1.33;;
42632;SDS011;28261;53.304;-6.284;2022-09-28T07:41:31;7.53;;;1.58;;
42632;SDS011;28261;53.304;-6.284;2022-09-28T07:43:37;9.32;;;1.17;;
42632;SDS011;28261;53.304;-6.284;2022-09-28T07:45:42;5.07;;;1.13;;
42632;SDS011;28261;53.304;-6.284;2022-09-28T07:47:46;5.00;;;1.40;;
42632;SDS011;28261;53.304;-6.284;2022-09-28T07:50:10;5.50;;;1.30;;
42632;SDS011;28261;53.304;-6.284;2022-09-28T07:52:45;9.95;;;1.15;;
42632;SDS011;28261;53.304;-6.284;2022-09-28T07:55:00;11.70;;;1.42;;
42632;SDS011;28261;53.304;-6.284;2022-09-28T07:57:43;4.88;;;1.00;;
42632;SDS011;28261;53.304;-6.284;2022-09-28T07:59:57;11.75;;;1.92;;
42632;SDS011;28261;53.304;-6.284;2022-09-28T08:02:14;4.40;;;1.02;;
42632;SDS011;28261;53.304;-6.284;2022-09-28T08:04:21;3.80;;;0.90;;
42632;SDS011;28261;53.304;-6.284;2022-09-28T08:06:26;10.30;;;1.65;;
42632;SDS011;28261;53.304;-6.284;2022-09-28T08:08:33;10.48;;;1.40;;
42632;SDS011;28261;53.304;-6.284;2022-09-28T08:10:40;9.15;;;1.30;;
42632;SDS011;28261;53.304;-6.284;2022-09-28T08:12:55;5.85;;;1.38;;
42632;SDS011;28261;53.304;-6.284;2022-09-28T08:15:22;6.43;;;1.65;;
42632;SDS011;28261;53.304;-6.284;2022-09-28T08:17:29;6.72;;;1.30;;
42632;SDS011;28261;53.304;-6.284;2022-09-28T08:19:35;7.72;;;1.52;;
42632;SDS011;28261;53.304;-6.284;2022-09-28T08:21:56;6.38;;;1.50;;
42632;SDS011;28261;53.304;-6.284;2022-09-28T08:24:02;6.55;;;1.33;;
42632;SDS011;28261;53.304;-6.284;2022-09-28T08:26:07;9.70;;;1.20;;
42632;SDS011;28261;53.304;-6.284;2022-09-28T08:28:16;7.90;;;1.15;;
42632;SDS011;28261;53.304;-6.284;2022-09-28T08:30:21;2.85;;;0.93;;
42632;SDS011;28261;53.304;-6.284;2022-09-28T08:32:45;4.47;;;0.80;;
42632;SDS011;28261;53.304;-6.284;2022-09-28T08:35:09;3.67;;;1.00;;
42632;SDS011;28261;53.304;-6.284;2022-09-28T08:37:24;4.38;;;0.90;;
42632;SDS011;28261;53.304;-6.284;2022-09-28T08:39:47;3.65;;;0.90;;
42632;SDS011;28261;53.304;-6.284;2022-09-28T08:42:15;9.95;;;1.30;;
42632;SDS011;28261;53.304;-6.284;2022-09-28T08:44:54;4.97;;;1.23;;
42632;SDS011;28261;53.304;-6.284;2022-09-28T08:47:22;5.28;;;1.42;;
42632;SDS011;28261;53.304;-6.284;2022-09-28T08:50:02;5.90;;;1.33;;
42632;SDS011;28261;53.304;-6.284;2022-09-28T08:52:18;6.25;;;1.50;;
42632;SDS011;28261;53.304;-6.284;2022-09-28T08:54:41;7.55;;;2.10;;
42632;SDS011;28261;53.304;-6.284;2022-09-28T08:57:05;2.97;;;1.23;;
42632;SDS011;28261;53.304;-6.284;2022-09-28T08:59:15;6.80;;;1.42;;
42632;SDS011;28261;53.304;-6.284;2022-09-28T09:01:31;5.22;;;1.40;;
42632;SDS011;28261;53.304;-6.284;2022-09-28T09:03:44;3.97;;;1.65;;
42632;SDS011;28261;53.304;-6.284;2022-09-28T09:06:04;6.13;;;1.60;;
42632;SDS011;28261;53.304;-6.284;2022-09-28T09:08:33;8.55;;;1.67;;
42632;SDS011;28261;53.304;-6.284;2022-09-28T09:10:47;5.72;;;1.60;;
42632;SDS011;28261;53.304;-6.284;2022-09-28T09:13:05;5.65;;;1.40;;
42632;SDS011;28261;53.304;-6.284;2022-09-28T09:15:30;3.75;;;1.55;;
42632;SDS011;28261;53.304;-6.284;2022-09-28T09:17:58;8.27;;;1.85;;
42632;SDS011;28261;53.304;-6.284;2022-09-28T09:20:24;10.10;;;1.50;;
42632;SDS011;28261;53.304;-6.284;2022-09-28T09:22:48;4.00;;;1.60;;
42632;SDS011;28261;53.304;-6.284;2022-09-28T09:25:02;8.75;;;1.35;;
42632;SDS011;28261;53.304;-6.284;2022-09-28T09:27:36;3.17;;;1.35;;
42632;SDS011;28261;53.304;-6.284;2022-09-28T09:29:58;5.82;;;1.70;;
42632;SDS011;28261;53.304;-6.284;2022-09-28T09:32:14;4.53;;;1.40;;
42632;SDS011;28261;53.304;-6.284;2022-09-28T09:34:32;7.15;;;1.38;;
42632;SDS011;28261;53.304;-6.284;2022-09-28T09:37:13;6.78;;;1.40;;
42632;SDS011;28261;53.304;-6.284;2022-09-28T09:40:02;4.85;;;1.60;;
42632;SDS011;28261;53.304;-6.284;2022-09-28T09:42:50;4.63;;;1.80;;
42632;SDS011;28261;53.304;-6.284;2022-09-28T09:45:39;5.20;;;1.77;;
42632;SDS011;28261;53.304;-6.284;2022-09-28T09:48:09;6.75;;;3.22;;
42632;SDS011;28261;53.304;-6.284;2022-09-28T09:50:22;5.78;;;1.92;;
42632;SDS011;28261;53.304;-6.284;2022-09-28T09:52:33;7.18;;;2.65;;
42632;SDS011;28261;53.304;-6.284;2022-09-28T09:54:48;7.50;;;2.42;;
42632;SDS011;28261;53.304;-6.284;2022-09-28T09:57:13;10.27;;;3.35;;
42632;SDS011;28261;53.304;-6.284;2022-09-28T09:59:40;13.18;;;3.10;;
42632;SDS011;28261;53.304;-6.284;2022-09-28T10:01:57;8.25;;;3.28;;
42632;SDS011;28261;53.304;-6.284;2022-09-28T10:04:16;5.38;;;2.35;;
42632;SDS011;28261;53.304;-6.284;2022-09-28T10:06:24;6.43;;;2.92;;
42632;SDS011;28261;53.304;-6.284;2022-09-28T10:08:33;6.18;;;2.13;;
42632;SDS011;28261;53.304;-6.284;2022-09-28T10:10:48;9.07;;;2.13;;
42632;SDS011;28261;53.304;-6.284;2022-09-28T10:12:55;7.65;;;3.10;;
42632;SDS011;28261;53.304;-6.284;2022-09-28T10:15:01;9.15;;;2.10;;
42632;SDS011;28261;53.304;-6.284;2022-09-28T10:17:22;4.95;;;1.83;;
42632;SDS011;28261;53.304;-6.284;2022-09-28T10:19:53;7.80;;;2.80;;
42632;SDS011;28261;53.304;-6.284;2022-09-28T10:21:58;4.47;;;1.60;;
42632;SDS011;28261;53.304;-6.284;2022-09-28T10:24:10;3.55;;;1.65;;
42632;SDS011;28261;53.304;-6.284;2022-09-28T10:26:22;4.18;;;1.73;;
42632;SDS011;28261;53.304;-6.284;2022-09-28T10:28:32;4.90;;;1.50;;
42632;SDS011;28261;53.304;-6.284;2022-09-28T10:30:42;5.03;;;1.40;;
42632;SDS011;28261;53.304;-6.284;2022-09-28T10:32:48;3.22;;;1.38;;
42632;SDS011;28261;53.304;-6.284;2022-09-28T10:35:04;4.78;;;1.17;;
42632;SDS011;28261;53.304;-6.284;2022-09-28T10:37:17;1.60;;;0.80;;
42632;SDS011;28261;53.304;-6.284;2022-09-28T10:39:32;4.95;;;0.95;;
42632;SDS011;28261;53.304;-6.284;2022-09-28T10:41:43;6.70;;;1.00;;
42632;SDS011;28261;53.304;-6.284;2022-09-28T10:43:59;7.45;;;1.30;;
42632;SDS011;28261;53.304;-6.284;2022-09-28T10:46:38;9.15;;;0.73;;
42632;SDS011;28261;53.304;-6.284;2022-09-28T10:48:49;2.70;;;0.75;;
42632;SDS011;28261;53.304;-6.284;2022-09-28T10:51:01;7.20;;;1.30;;
42632;SDS011;28261;53.304;-6.284;2022-09-28T10:53:11;4.80;;;1.83;;
42632;SDS011;28261;53.304;-6.284;2022-09-28T10:55:58;7.75;;;1.30;;
42632;SDS011;28261;53.304;-6.284;2022-09-28T10:58:18;3.20;;;1.00;;
42632;SDS011;28261;53.304;-6.284;2022-09-28T11:00:29;2.67;;;0.80;;
42632;SDS011;28261;53.304;-6.284;2022-09-28T11:02:57;2.75;;;0.90;;
42632;SDS011;28261;53.304;-6.284;2022-09-28T11:05:04;2.58;;;0.90;;
42632;SDS011;28261;53.304;-6.284;2022-09-28T11:07:17;1.75;;;0.52;;
42632;SDS011;28261;53.304;-6.284;2022-09-28T11:09:23;2.83;;;0.90;;
42632;SDS011;28261;53.304;-6.284;2022-09-28T11:11:38;0.60;;;0.50;;
42632;SDS011;28261;53.304;-6.284;2022-09-28T11:13:44;2.97;;;0.70;;
42632;SDS011;28261;53.304;-6.284;2022-09-28T11:15:56;3.45;;;0.63;;
42632;SDS011;28261;53.304;-6.284;2022-09-28T11:20:33;0.93;;;0.60;;
42632;SDS011;28261;53.304;-6.284;2022-09-28T11:22:40;2.05;;;0.47;;
42632;SDS011;28261;53.304;-6.284;2022-09-28T11:24:46;5.68;;;0.85;;
42632;SDS011;28261;53.304;-6.284;2022-09-28T11:26:51;3.10;;;0.77;;
42632;SDS011;28261;53.304;-6.284;2022-09-28T11:29:00;3.28;;;0.68;;
42632;SDS011;28261;53.304;-6.284;2022-09-28T11:31:16;8.27;;;1.33;;
42632;SDS011;28261;53.304;-6.284;2022-09-28T11:33:35;1.60;;;0.73;;
42632;SDS011;28261;53.304;-6.284;2022-09-28T11:36:04;4.80;;;0.80;;
42632;SDS011;28261;53.304;-6.284;2022-09-28T11:38:29;2.85;;;0.55;;
42632;SDS011;28261;53.304;-6.284;2022-09-28T11:41:03;2.72;;;0.47;;
42632;SDS011;28261;53.304;-6.284;2022-09-28T11:43:20;3.40;;;0.65;;
42632;SDS011;28261;53.304;-6.284;2022-09-28T11:45:44;2.38;;;0.50;;
42632;SDS011;28261;53.304;-6.284;2022-09-28T11:47:56;8.18;;;1.05;;
42632;SDS011;28261;53.304;-6.284;2022-09-28T11:50:11;6.38;;;0.70;;
42632;SDS011;28261;53.304;-6.284;2022-09-28T11:52:27;2.67;;;0.52;;
42632;SDS011;28261;53.304;-6.284;2022-09-28T11:54:38;2.42;;;0.63;;
42632;SDS011;28261;53.304;-6.284;2022-09-28T11:56:46;3.45;;;1.00;;
42632;SDS011;28261;53.304;-6.284;2022-09-28T11:58:53;6.25;;;0.70;;
42632;SDS011;28261;53.304;-6.284;2022-09-28T12:01:15;1.75;;;0.65;;
42632;SDS011;28261;53.304;-6.284;2022-09-28T12:03:44;1.20;;;0.47;;
42632;SDS011;28261;53.304;-6.284;2022-09-28T12:05:54;3.20;;;0.65;;
42632;SDS011;28261;53.304;-6.284;2022-09-28T12:08:06;2.25;;;0.60;;
42632;SDS011;28261;53.304;-6.284;2022-09-28T12:10:46;3.97;;;0.70;;
42632;SDS011;28261;53.304;-6.284;2022-09-28T12:13:13;1.05;;;0.60;;
42632;SDS011;28261;53.304;-6.284;2022-09-28T12:15:24;7.35;;;0.90;;
42632;SDS011;28261;53.304;-6.284;2022-09-28T12:17:49;3.03;;;0.45;;
42632;SDS011;28261;53.304;-6.284;2022-09-28T12:19:57;1.15;;;0.40;;
42632;SDS011;28261;53.304;-6.284;2022-09-28T12:22:09;2.15;;;0.43;;
42632;SDS011;28261;53.304;-6.284;2022-09-28T12:24:22;1.05;;;0.55;;
42632;SDS011;28261;53.304;-6.284;2022-09-28T12:26:31;1.67;;;0.45;;
42632;SDS011;28261;53.304;-6.284;2022-09-28T12:28:42;2.08;;;0.50;;
42632;SDS011;28261;53.304;-6.284;2022-09-28T12:30:51;2.92;;;0.45;;
42632;SDS011;28261;53.304;-6.284;2022-09-28T12:32:57;1.70;;;0.40;;
42632;SDS011;28261;53.304;-6.284;2022-09-28T12:35:09;2.63;;;0.50;;
42632;SDS011;28261;53.304;-6.284;2022-09-28T12:37:19;1.65;;;0.47;;
42632;SDS011;28261;53.304;-6.284;2022-09-28T12:39:39;2.42;;;0.60;;
42632;SDS011;28261;53.304;-6.284;2022-09-28T12:42:05;1.40;;;0.65;;
42632;SDS011;28261;53.304;-6.284;2022-09-28T12:44:31;3.90;;;0.65;;
42632;SDS011;28261;53.304;-6.284;2022-09-28T12:49:23;4.40;;;0.70;;
42632;SDS011;28261;53.304;-6.284;2022-09-28T12:51:53;3.05;;;0.60;;
42632;SDS011;28261;53.304;-6.284;2022-09-28T12:54:03;3.28;;;0.75;;
42632;SDS011;28261;53.304;-6.284;2022-09-28T12:56:19;2.25;;;0.40;;
42632;SDS011;28261;53.304;-6.284;2022-09-28T13:01:02;3.30;;;0.50;;
42632;SDS011;28261;53.304;-6.284;2022-09-28T13:03:35;2.78;;;0.57;;
42632;SDS011;28261;53.304;-6.284;2022-09-28T13:06:05;0.82;;;0.55;;
42632;SDS011;28261;53.304;-6.284;2022-09-28T13:08:21;4.22;;;0.70;;
42632;SDS011;28261;53.304;-6.284;2022-09-28T13:10:35;1.70;;;0.47;;
42632;SDS011;28261;53.304;-6.284;2022-09-28T13:12:48;1.55;;;0.57;;
42632;SDS011;28261;53.304;-6.284;2022-09-28T13:15:13;2.63;;;0.50;;
42632;SDS011;28261;53.304;-6.284;2022-09-28T13:17:41;1.92;;;0.32;;
42632;SDS011;28261;53.304;-6.284;2022-09-28T13:19:54;1.40;;;0.50;;